Time;durP1;ratioP1;P1;durP2;ratioP2;P2;SDS_P1;SDS_P2;PMS_P1;PMS_P2;Temp;Humidity;BMP_temperature;BMP_pressure;BME280_temperature;BME280_humidity;BME280_pressure;Samples;Min_cycle;Max_cycle;Signal;HPM_P1;HPM_P2
2023/07/07 00:01:51;;;;;;;9.90;7.03;;;;;;;24.34;67.06;99488.47;5086644;28;20564;-47
2023/07/07 00:04:17;;;;;;;11.02;6.53;;;;;;;24.34;67.12;99484.97;5087251;28;20055;-46
2023/07/07 00:06:44;;;;;;;9.68;6.43;;;;;;;24.33;67.45;99491.28;5069834;28;20070;-44
2023/07/07 00:09:10;;;;;;;8.30;7.05;;;;;;;24.16;67.61;99466.28;5086160;28;20040;-45
2023/07/07 00:11:36;;;;;;;8.70;6.55;;;;;;;24.33;67.87;99504.56;5087911;28;20066;-46
2023/07/07 00:14:02;;;;;;;13.23;6.80;;;;;;;24.19;68.00;99481.94;5087968;28;20079;-45
2023/07/07 00:16:28;;;;;;;9.38;6.70;;;;;;;24.35;67.98;99506.09;5085038;28;20044;-46
2023/07/07 00:18:55;;;;;;;10.52;6.72;;;;;;;24.35;68.15;99506.09;5087502;28;20543;-45
2023/07/07 00:21:24;;;;;;;10.68;6.80;;;;;;;24.35;68.35;99503.44;5087761;28;20039;-44
2023/07/07 00:23:55;;;;;;;12.25;6.68;;;;;;;24.36;68.37;99494.50;5080716;28;20051;-44
2023/07/07 00:26:22;;;;;;;11.77;6.57;;;;;;;24.36;68.47;99497.16;5082247;28;20089;-44
2023/07/07 00:28:48;;;;;;;12.30;6.97;;;;;;;24.36;68.52;99494.50;5087489;28;20530;-45
2023/07/07 00:31:20;;;;;;;12.63;7.10;;;;;;;24.33;68.90;99494.78;5081833;28;20555;-43
2023/07/07 00:33:46;;;;;;;11.68;6.97;;;;;;;24.34;68.48;99496.44;5085538;28;20040;-44
2023/07/07 00:36:12;;;;;;;9.57;6.18;;;;;;;24.30;68.83;99499.53;5086092;28;20051;-44
2023/07/07 00:38:39;;;;;;;13.50;7.25;;;;;;;24.27;69.09;99494.53;5068281;28;20044;-43
2023/07/07 00:41:06;;;;;;;11.10;6.65;;;;;;;24.25;69.17;99505.28;5086085;28;20071;-43
2023/07/07 00:43:33;;;;;;;8.70;6.57;;;;;;;24.25;69.37;99504.44;5085879;28;20139;-44
2023/07/07 00:46:00;;;;;;;10.70;6.57;;;;;;;24.24;69.35;99494.78;5064590;28;20420;-46
2023/07/07 00:48:30;;;;;;;8.27;6.47;;;;;;;24.22;69.59;99486.97;5067090;28;20071;-50
2023/07/07 00:51:25;;;;;;;9.57;6.53;;;;;;;24.12;69.87;99470.19;5049105;28;20045;-44
2023/07/07 00:53:52;;;;;;;8.68;6.75;;;;;;;24.18;69.88;99482.09;5067518;28;20038;-43
2023/07/07 00:56:31;;;;;;;8.95;6.50;;;;;;;24.12;70.06;99478.16;5085990;28;20042;-45
2023/07/07 00:59:01;;;;;;;10.13;6.53;;;;;;;24.07;70.46;99475.91;5069086;28;20051;-44
2023/07/07 01:01:27;;;;;;;11.07;6.53;;;;;;;24.04;70.71;99483.34;5082715;28;20075;-43
2023/07/07 01:03:58;;;;;;;9.63;6.10;;;;;;;24.00;70.89;99482.81;5075791;28;20040;-45
2023/07/07 01:06:27;;;;;;;10.75;6.38;;;;;;;23.86;71.52;99462.00;5085985;28;20058;-43
2023/07/07 01:09:11;;;;;;;11.43;6.60;;;;;;;23.95;71.69;99484.22;5086015;28;20032;-42
2023/07/07 01:11:38;;;;;;;11.88;6.45;;;;;;;23.76;71.67;99447.88;5082229;28;20127;-44
2023/07/07 01:14:10;;;;;;;9.50;6.07;;;;;;;23.89;71.48;99479.47;5085682;28;20047;-50
2023/07/07 01:16:45;;;;;;;8.60;5.95;;;;;;;23.89;71.85;99466.19;5068798;28;20081;-45
2023/07/07 01:19:49;;;;;;;7.22;5.45;;;;;;;23.87;72.17;99450.38;5060681;28;20049;-43
2023/07/07 01:22:33;;;;;;;8.35;6.20;;;;;;;23.86;72.01;99450.56;5046227;28;20067;-44
2023/07/07 01:25:03;;;;;;;7.93;6.18;;;;;;;23.84;72.33;99445.38;5072624;28;20048;-45
2023/07/07 01:27:42;;;;;;;10.63;6.40;;;;;;;23.83;72.35;99446.34;5085666;28;20040;-46
2023/07/07 01:30:39;;;;;;;10.68;6.28;;;;;;;23.81;72.80;99445.66;5039275;28;20047;-44
2023/07/07 01:33:10;;;;;;;6.95;5.65;;;;;;;23.76;72.90;99431.16;5069425;28;20036;-44
2023/07/07 01:35:37;;;;;;;7.25;6.30;;;;;;;23.74;72.97;99435.75;5071939;28;20039;-46
2023/07/07 01:38:03;;;;;;;6.95;6.22;;;;;;;23.72;73.44;99435.03;5086512;28;20052;-45
2023/07/07 01:40:35;;;;;;;6.93;5.93;;;;;;;23.56;73.80;99412.56;5083157;28;20491;-45
2023/07/07 01:43:13;;;;;;;7.55;6.60;;;;;;;23.53;73.88;99409.38;5089355;28;20048;-43
2023/07/07 01:45:51;;;;;;;9.02;6.20;;;;;;;23.59;74.06;99408.81;5072582;28;20044;-44
2023/07/07 01:48:26;;;;;;;9.90;6.20;;;;;;;23.58;74.28;99407.97;5055469;28;20040;-47
2023/07/07 01:50:53;;;;;;;7.78;6.28;;;;;;;23.54;74.50;99408.41;5072268;28;20743;-46
2023/07/07 01:53:22;;;;;;;7.78;5.97;;;;;;;23.51;74.76;99401.53;5089202;28;20514;-43
2023/07/07 01:55:51;;;;;;;9.95;6.88;;;;;;;23.49;75.01;99397.38;5071490;28;20405;-44
2023/07/07 01:58:18;;;;;;;10.70;6.65;;;;;;;23.46;75.23;99394.97;5068324;28;20048;-43
2023/07/07 02:00:45;;;;;;;10.63;6.13;;;;;;;23.43;75.58;99390.78;5068918;28;20127;-44
2023/07/07 02:03:11;;;;;;;8.13;6.70;;;;;;;23.41;75.77;99384.75;5081844;28;20036;-43
2023/07/07 02:05:37;;;;;;;8.10;6.40;;;;;;;23.23;76.20;99368.75;5070029;28;20094;-44
2023/07/07 02:08:04;;;;;;;9.35;6.55;;;;;;;23.37;76.20;99393.16;5052121;28;20048;-45
2023/07/07 02:10:30;;;;;;;7.63;6.35;;;;;;;23.35;76.58;99393.28;5073014;28;20040;-42
2023/07/07 02:12:56;;;;;;;10.43;6.70;;;;;;;23.33;76.96;99387.28;5086578;28;20388;-42
2023/07/07 02:15:22;;;;;;;7.45;6.38;;;;;;;23.32;77.27;99385.63;5052589;28;20036;-43
2023/07/07 02:17:48;;;;;;;11.38;6.55;;;;;;;23.33;77.40;99381.16;5067357;28;20063;-43
2023/07/07 02:20:34;;;;;;;11.45;6.53;;;;;;;23.34;77.43;99382.84;5044421;28;20040;-44
2023/07/07 02:22:59;;;;;;;10.75;6.55;;;;;;;23.35;77.38;99387.97;5087962;28;20431;-44
2023/07/07 02:25:25;;;;;;;13.07;6.78;;;;;;;23.36;77.61;99394.13;5087837;28;20044;-46
2023/07/07 02:27:51;;;;;;;11.48;7.30;;;;;;;23.39;77.63;99397.34;5088677;28;20032;-44
2023/07/07 02:30:17;;;;;;;8.13;6.60;;;;;;;23.42;77.66;99397.06;5088475;28;20040;-44
2023/07/07 02:32:43;;;;;;;11.00;7.15;;;;;;;23.48;77.77;99390.38;5077413;28;20051;-42
2023/07/07 02:35:09;;;;;;;9.45;6.40;;;;;;;23.51;77.65;99395.41;5071515;28;20032;-45
2023/07/07 02:37:35;;;;;;;13.35;6.72;;;;;;;23.37;77.44;99362.16;5051356;28;20054;-48
2023/07/07 02:40:02;;;;;;;8.38;6.40;;;;;;;23.57;77.32;99400.13;5068613;28;20048;-43
2023/07/07 02:42:29;;;;;;;9.32;6.68;;;;;;;23.59;77.25;99407.00;5067739;28;20039;-44
2023/07/07 02:44:55;;;;;;;10.18;6.45;;;;;;;23.61;77.15;99402.38;5087616;28;20636;-43
2023/07/07 02:47:21;;;;;;;6.47;5.53;;;;;;;23.63;77.17;99408.38;5086694;28;20127;-44
2023/07/07 02:49:47;;;;;;;10.88;6.70;;;;;;;23.67;76.96;99403.63;5086714;28;20567;-47
2023/07/07 02:52:13;;;;;;;7.40;6.03;;;;;;;23.47;76.76;99368.31;5087891;28;20756;-44
2023/07/07 02:54:38;;;;;;;8.70;6.60;;;;;;;23.73;76.76;99407.53;5088350;28;20032;-44
2023/07/07 02:57:05;;;;;;;8.30;5.68;;;;;;;23.72;76.40;99409.34;5088232;28;20754;-45
2023/07/07 02:59:31;;;;;;;8.48;6.10;;;;;;;23.78;76.16;99416.72;5089079;28;20109;-46
2023/07/07 03:01:57;;;;;;;8.38;5.50;;;;;;;23.72;75.96;99408.50;5088989;28;20788;-43
2023/07/07 03:04:24;;;;;;;10.32;5.70;;;;;;;23.75;75.75;99403.75;5054488;28;20036;-45
2023/07/07 03:06:51;;;;;;;12.10;5.10;;;;;;;23.88;75.33;99422.00;5067655;28;20423;-45
2023/07/07 03:09:18;;;;;;;7.55;5.38;;;;;;;23.91;74.81;99419.94;5067586;28;20036;-44
2023/07/07 03:11:46;;;;;;;8.18;5.40;;;;;;;23.93;74.72;99423.25;5056966;28;20040;-45
2023/07/07 03:14:15;;;;;;;11.38;6.10;;;;;;;23.84;74.54;99408.19;5070298;28;20687;-45
2023/07/07 03:16:47;;;;;;;6.72;4.97;;;;;;;23.76;73.71;99400.09;5070934;28;20093;-44
2023/07/07 03:19:15;;;;;;;6.18;4.95;;;;;;;23.90;73.59;99418.25;5071959;28;20067;-45
2023/07/07 03:21:54;;;;;;;5.63;4.65;;;;;;;23.84;73.45;99400.22;5079724;28;20091;-49
2023/07/07 03:24:50;;;;;;;8.48;4.65;;;;;;;24.12;72.94;99429.50;5058259;28;20051;-45
2023/07/07 03:27:23;;;;;;;5.65;4.70;;;;;;;24.23;72.21;99429.38;5049080;28;20464;-45
2023/07/07 03:29:50;;;;;;;5.78;4.35;;;;;;;24.33;71.55;99438.16;5068131;28;20043;-45
2023/07/07 03:32:18;;;;;;;;;;;;;;;24.44;71.04;99436.13;5070407;28;20048;-43
2023/07/07 03:34:49;;;;;;;6.80;4.50;;;;;;;24.56;70.67;99435.94;5066447;28;19976;-44
2023/07/07 03:37:17;;;;;;;8.90;4.68;;;;;;;24.60;70.15;99434.66;5067155;28;20068;-47
2023/07/07 03:39:43;;;;;;;6.43;4.65;;;;;;;24.45;70.10;99421.00;5073884;28;20557;-45
2023/07/07 03:42:09;;;;;;;5.03;4.15;;;;;;;24.20;69.79;99395.09;5081168;28;20045;-45
2023/07/07 03:44:36;;;;;;;7.97;5.22;;;;;;;24.33;69.66;99431.00;5067140;28;20093;-41
2023/07/07 03:47:02;;;;;;;8.80;4.45;;;;;;;24.35;69.44;99418.41;5066977;28;20052;-44
2023/07/07 03:49:28;;;;;;;5.10;4.38;;;;;;;24.36;69.44;99419.25;5066679;28;20117;-44
2023/07/07 03:51:54;;;;;;;5.40;4.45;;;;;;;24.39;69.42;99417.13;5052389;28;20173;-43
2023/07/07 03:54:20;;;;;;;5.70;4.80;;;;;;;24.29;69.39;99395.06;5069287;28;20142;-44
2023/07/07 03:56:46;;;;;;;9.88;4.22;;;;;;;24.40;69.74;99424.09;5069437;28;20849;-45
2023/07/07 03:59:12;;;;;;;7.15;4.88;;;;;;;24.21;69.74;99408.25;5086287;28;20131;-46
2023/07/07 04:01:38;;;;;;;7.28;4.95;;;;;;;24.36;69.93;99421.91;5082301;28;20051;-45
2023/07/07 04:04:04;;;;;;;9.38;4.82;;;;;;;24.39;70.17;99433.06;5084747;28;20132;-48
2023/07/07 04:06:33;;;;;;;6.22;4.60;;;;;;;24.42;70.16;99430.13;5049523;28;20040;-48
2023/07/07 04:08:59;;;;;;;8.30;5.05;;;;;;;24.43;70.31;99433.63;5066413;28;20032;-45
2023/07/07 04:11:24;;;;;;;7.47;5.03;;;;;;;24.40;70.17;99417.97;5067714;28;20049;-46
2023/07/07 04:13:52;;;;;;;7.90;5.25;;;;;;;24.45;70.30;99418.34;5081582;28;20504;-46
2023/07/07 04:16:25;;;;;;;10.80;4.93;;;;;;;24.47;70.38;99419.88;5053036;28;20035;-48
2023/07/07 04:18:53;;;;;;;7.53;4.57;;;;;;;24.50;70.17;99418.75;5086582;28;20101;-44
2023/07/07 04:21:21;;;;;;;9.45;5.00;;;;;;;24.54;69.78;99416.66;5069823;28;20130;-43
2023/07/07 04:23:49;;;;;;;6.00;4.97;;;;;;;24.48;69.26;99421.56;5076331;28;20054;-45
2023/07/07 04:26:16;;;;;;;6.85;4.85;;;;;;;24.46;69.38;99420.88;5067660;28;20606;-44
2023/07/07 04:28:42;;;;;;;8.07;4.80;;;;;;;24.56;69.16;99412.84;5049146;28;20038;-45
2023/07/07 04:31:10;;;;;;;9.65;4.85;;;;;;;24.56;68.86;99390.72;5039814;28;20036;-48
2023/07/07 04:33:36;;;;;;;5.53;4.60;;;;;;;24.69;68.30;99409.84;5029853;28;20041;-45
2023/07/07 04:36:04;;;;;;;6.57;4.70;;;;;;;24.75;67.96;99414.56;5061552;28;20051;-45
2023/07/07 04:38:31;;;;;;;6.80;4.85;;;;;;;24.77;67.58;99408.09;5049368;28;20032;-45
2023/07/07 04:41:16;;;;;;;6.35;4.65;;;;;;;24.89;67.45;99414.94;5049509;28;20098;-44
2023/07/07 04:43:52;;;;;;;5.05;4.45;;;;;;;24.98;66.76;99405.19;5059394;28;20036;-45
2023/07/07 04:46:21;;;;;;;7.07;4.80;;;;;;;25.08;66.25;99399.81;5056054;28;20047;-45
2023/07/07 04:48:48;;;;;;;8.45;5.03;;;;;;;25.33;65.82;99409.72;5055023;28;20527;-44
2023/07/07 04:51:14;;;;;;;9.57;5.22;;;;;;;25.45;65.48;99408.47;5037598;28;20158;-47
2023/07/07 04:53:41;;;;;;;5.20;4.70;;;;;;;25.55;65.14;99392.38;5055066;28;20520;-44
2023/07/07 04:56:12;;;;;;;8.57;5.05;;;;;;;25.71;64.51;99403.19;5047818;28;20037;-43
2023/07/07 04:58:39;;;;;;;8.43;5.45;;;;;;;25.78;64.51;99400.75;5037153;28;20611;-44
2023/07/07 05:01:06;;;;;;;6.57;4.70;;;;;;;25.86;64.17;99398.97;5049452;28;20067;-44
2023/07/07 05:03:33;;;;;;;6.68;4.82;;;;;;;25.91;63.81;99395.84;5050351;28;20044;-45
2023/07/07 05:06:02;;;;;;;9.48;5.20;;;;;;;25.85;63.77;99386.66;5070622;28;20051;-48
2023/07/07 05:08:32;;;;;;;9.90;4.90;;;;;;;26.00;63.84;99394.91;5063976;28;20044;-46
2023/07/07 05:10:58;;;;;;;8.68;4.78;;;;;;;25.97;63.16;99400.53;5060228;28;20032;-44
2023/07/07 05:13:25;;;;;;;9.35;5.32;;;;;;;25.93;63.08;99402.69;5064235;28;20418;-44
2023/07/07 05:16:18;;;;;;;5.90;4.93;;;;;;;25.99;63.27;99401.22;5019675;28;20040;-47
2023/07/07 05:18:44;;;;;;;7.63;4.70;;;;;;;26.09;62.77;99399.28;5055087;28;20060;-45
2023/07/07 05:21:11;;;;;;;7.50;5.00;;;;;;;26.09;62.94;99400.13;5058036;28;20047;-43
2023/07/07 05:23:37;;;;;;;7.70;5.50;;;;;;;26.09;62.81;99400.13;5055992;28;20060;-44
2023/07/07 05:26:05;;;;;;;8.45;5.60;;;;;;;26.13;62.47;99382.81;5061101;28;20068;-44
2023/07/07 05:28:31;;;;;;;7.65;5.13;;;;;;;26.33;62.34;99391.44;5063883;28;20508;-42
2023/07/07 05:30:57;;;;;;;8.77;5.32;;;;;;;26.40;61.85;99383.63;5079407;28;20112;-43
2023/07/07 05:33:24;;;;;;;7.60;4.88;;;;;;;26.37;62.03;99390.13;5078818;28;20051;-41
2023/07/07 05:35:52;;;;;;;8.48;5.70;;;;;;;26.44;61.94;99390.31;5082826;28;20035;-43
2023/07/07 05:38:21;;;;;;;;;;;;;;;26.59;61.84;99391.34;5089712;28;20036;-41
2023/07/07 05:40:47;;;;;;;10.10;5.15;;;;;;;26.72;61.26;99398.91;5089027;28;19927;-41
2023/07/07 05:43:14;;;;;;;12.57;5.50;;;;;;;26.70;61.26;99412.41;5067629;28;20045;-42
2023/07/07 05:45:40;;;;;;;6.32;5.03;;;;;;;26.46;61.16;99417.66;5075311;28;20037;-42
2023/07/07 05:48:07;;;;;;;11.20;4.88;;;;;;;26.35;61.81;99416.09;5090709;28;20043;-40
2023/07/07 05:50:33;;;;;;;9.27;5.60;;;;;;;26.30;62.22;99404.25;5089421;28;20031;-41
2023/07/07 05:52:59;;;;;;;10.38;5.88;;;;;;;26.32;62.58;99415.59;5085929;28;20048;-42
2023/07/07 05:55:30;;;;;;;8.32;5.80;;;;;;;26.30;62.72;99412.25;5078582;28;20531;-45
2023/07/07 05:57:56;;;;;;;6.60;4.88;;;;;;;26.30;62.59;99402.41;5078936;28;20043;-42
2023/07/07 06:00:23;;;;;;;8.38;5.43;;;;;;;26.52;62.22;99409.84;5076628;28;20123;-41
2023/07/07 06:02:49;;;;;;;8.25;5.22;;;;;;;26.63;61.75;99410.56;5060255;28;20044;-44
2023/07/07 06:05:15;;;;;;;6.70;5.35;;;;;;;26.70;61.58;99404.41;5080574;28;20044;-44
2023/07/07 06:07:41;;;;;;;9.88;5.43;;;;;;;26.82;61.57;99405.78;5075640;28;20040;-43
2023/07/07 06:10:10;;;;;;;8.52;5.75;;;;;;;27.15;60.84;99406.72;5081314;28;20085;-43
2023/07/07 06:12:37;;;;;;;7.72;6.05;;;;;;;27.19;60.59;99410.72;5080097;28;20047;-42
2023/07/07 06:15:04;;;;;;;9.65;5.60;;;;;;;27.20;60.13;99409.72;5047164;28;20615;-41
2023/07/07 06:17:31;;;;;;;10.57;5.75;;;;;;;27.40;59.81;99407.56;5082226;28;20032;-43
2023/07/07 06:19:57;;;;;;;10.23;5.57;;;;;;;27.74;59.33;99399.41;5080046;28;20530;-42
2023/07/07 06:22:23;;;;;;;7.53;4.95;;;;;;;27.72;58.33;99396.06;5079576;28;20108;-42
2023/07/07 06:24:49;;;;;;;9.48;5.25;;;;;;;27.48;57.89;99398.72;5077640;28;20052;-42
2023/07/07 06:27:15;;;;;;;12.38;4.85;;;;;;;27.26;58.03;99381.53;5078952;28;20184;-42
2023/07/07 06:29:41;;;;;;;6.70;5.05;;;;;;;27.15;58.37;99392.53;5079976;28;20082;-42
2023/07/07 06:32:07;;;;;;;7.47;5.10;;;;;;;27.00;58.68;99376.34;5077176;28;20083;-42
2023/07/07 06:34:33;;;;;;;8.80;5.22;;;;;;;26.93;58.63;99370.81;5062540;28;20056;-42
2023/07/07 06:36:59;;;;;;;8.82;5.45;;;;;;;26.86;58.81;99374.25;5081137;28;20099;-44
2023/07/07 06:39:29;;;;;;;7.65;5.53;;;;;;;26.88;58.81;99396.31;5056275;28;20032;-41
2023/07/07 06:41:56;;;;;;;9.43;5.60;;;;;;;26.81;59.48;99390.75;5087703;28;20043;-39
2023/07/07 06:44:24;;;;;;;9.15;5.40;;;;;;;27.05;59.21;99397.19;5074849;28;20794;-40
2023/07/07 06:46:50;;;;;;;6.85;5.43;;;;;;;27.15;58.27;99368.50;5065043;28;20046;-41
2023/07/07 06:49:16;;;;;;;8.43;5.35;;;;;;;27.34;58.21;99400.22;5066561;28;20415;-41
2023/07/07 06:51:42;;;;;;;7.50;5.10;;;;;;;27.32;57.70;99386.22;5089254;28;20039;-42
2023/07/07 06:54:08;;;;;;;10.68;5.65;;;;;;;27.37;57.93;99406.03;5069042;28;20134;-43
2023/07/07 06:56:33;;;;;;;7.78;5.22;;;;;;;27.65;57.27;99392.38;5071711;28;20078;-44
2023/07/07 06:58:59;;;;;;;6.82;5.35;;;;;;;27.80;56.88;99401.38;5078305;28;20040;-42
2023/07/07 11:54:07;;;;;;;8.00;6.47;;;;;;;28.68;53.60;99394.13;5088050;27;20427;-40
2023/07/07 11:57:08;;;;;;;10.85;6.18;;;;;;;29.05;53.82;99406.78;5084774;28;20039;-41
2023/07/07 12:00:05;;;;;;;13.00;6.18;;;;;;;29.30;52.83;99415.50;5084682;28;20028;-41
2023/07/07 12:02:43;;;;;;;8.60;5.45;;;;;;;29.55;51.38;99414.31;5080627;28;20040;-41
2023/07/07 12:05:12;;;;;;;7.32;4.88;;;;;;;29.94;49.91;99410.66;5082163;28;20072;-39
2023/07/07 12:07:44;;;;;;;7.78;4.97;;;;;;;30.06;48.45;99418.03;5083282;28;20056;-40
2023/07/07 12:10:29;;;;;;;7.22;5.70;;;;;;;29.67;48.50;99404.84;5033144;28;20040;-40
2023/07/07 12:13:00;;;;;;;6.40;4.22;;;;;;;29.53;48.60;99402.94;5070956;28;20048;-42
2023/07/07 12:15:31;;;;;;;6.03;4.72;;;;;;;29.33;48.52;99370.47;5049705;28;20032;-41
2023/07/07 12:18:11;;;;;;;5.97;5.22;;;;;;;29.47;48.24;99387.59;5088276;28;20490;-40
2023/07/07 12:20:41;;;;;;;8.18;5.20;;;;;;;29.09;48.53;99385.88;5082644;28;20051;-41
2023/07/07 12:23:15;;;;;;;7.43;5.00;;;;;;;29.03;48.84;99392.75;5083232;28;20120;-41
2023/07/07 12:25:41;;;;;;;8.07;4.78;;;;;;;29.18;48.22;99387.47;5083169;28;20040;-41
2023/07/07 12:28:08;;;;;;;7.40;4.97;;;;;;;29.18;48.28;99390.97;5085301;28;20036;-41
2023/07/07 12:30:45;;;;;;;8.23;5.03;;;;;;;29.25;47.96;99397.28;5088658;28;20046;-41
2023/07/07 12:33:12;;;;;;;6.43;4.93;;;;;;;29.36;47.95;99393.41;5064979;28;20115;-41
2023/07/07 12:35:56;;;;;;;7.32;5.15;;;;;;;29.29;47.55;99371.81;5084290;28;20043;-41
2023/07/07 12:38:30;;;;;;;7.57;4.90;;;;;;;29.54;47.22;99366.25;5083063;28;20535;-40
2023/07/07 12:41:00;;;;;;;7.30;4.57;;;;;;;29.56;47.31;99349.00;5083695;28;20076;-41
2023/07/07 12:43:43;;;;;;;6.60;4.40;;;;;;;30.14;45.98;99376.91;5084091;28;20043;-39
2023/07/07 12:46:36;;;;;;;6.38;4.43;;;;;;;30.04;45.88;99377.19;5082711;28;20075;-41
2023/07/07 12:49:16;;;;;;;8.85;4.20;;;;;;;30.08;45.52;99367.75;5060853;28;20143;-40
2023/07/07 12:51:42;;;;;;;7.15;4.85;;;;;;;30.08;45.76;99362.38;5061905;28;20057;-42
2023/07/07 12:54:11;;;;;;;6.95;4.45;;;;;;;29.99;45.48;99360.78;5075900;28;20044;-41
2023/07/07 12:56:58;;;;;;;5.95;4.20;;;;;;;29.84;45.59;99365.28;5089414;28;20036;-40
2023/07/07 12:59:39;;;;;;;4.22;3.83;;;;;;;29.76;45.36;99360.88;5085086;28;20119;-41
2023/07/07 13:02:24;;;;;;;5.20;3.83;;;;;;;29.58;45.59;99352.31;5095386;28;20123;-40
2023/07/07 13:04:59;;;;;;;4.43;3.97;;;;;;;29.61;45.54;99359.19;5070046;28;20563;-40
2023/07/07 13:07:30;;;;;;;5.32;3.85;;;;;;;29.32;45.64;99347.38;5048420;28;20049;-40
2023/07/07 13:09:56;;;;;;;10.00;4.05;;;;;;;29.15;46.32;99361.06;5049023;28;20144;-41
2023/07/07 13:12:39;;;;;;;5.43;4.30;;;;;;;28.94;46.93;99359.84;5059902;28;20153;-40
2023/07/07 13:15:19;;;;;;;6.57;3.80;;;;;;;28.75;47.32;99352.28;5049890;28;20124;-42
2023/07/07 13:17:47;;;;;;;5.53;4.03;;;;;;;28.41;47.63;99365.16;5065554;28;20062;-40
2023/07/07 13:20:17;;;;;;;6.50;4.22;;;;;;;28.33;48.22;99362.50;5043495;28;20037;-44
2023/07/07 13:23:09;;;;;;;6.90;4.40;;;;;;;28.35;48.58;99350.63;5048395;28;20044;-41
2023/07/07 13:25:35;;;;;;;8.05;4.60;;;;;;;28.42;48.73;99337.41;5039974;28;20045;-40
2023/07/07 13:28:03;;;;;;;6.05;4.78;;;;;;;28.44;48.59;99344.22;5067520;28;20134;-41
2023/07/07 13:30:35;;;;;;;6.18;4.32;;;;;;;28.32;48.82;99344.78;5069066;28;20090;-40
2023/07/07 13:33:10;;;;;;;5.03;4.38;;;;;;;28.04;49.63;99339.03;5059545;28;20063;-43
2023/07/07 13:35:42;;;;;;;5.18;4.15;;;;;;;27.99;49.64;99334.22;5058609;28;20036;-41
2023/07/07 13:38:16;;;;;;;5.75;4.20;;;;;;;28.08;49.61;99325.16;5061619;28;20346;-42
2023/07/07 13:40:43;;;;;;;5.50;4.45;;;;;;;28.13;49.61;99333.50;5065060;28;20097;-41
2023/07/07 13:43:28;;;;;;;4.85;4.28;;;;;;;27.93;50.03;99342.06;5063762;28;20789;-43
2023/07/07 13:46:14;;;;;;;6.43;4.53;;;;;;;27.83;50.62;99336.94;5046564;28;20091;-42
2023/07/07 13:48:43;;;;;;;9.18;4.90;;;;;;;27.95;50.40;99334.72;5063367;28;20040;-42
2023/07/07 13:51:21;;;;;;;6.15;5.10;;;;;;;27.84;51.09;99324.41;5067515;28;20053;-41
2023/07/07 13:53:47;;;;;;;12.57;5.60;;;;;;;27.75;51.33;99336.94;5049991;28;20131;-44
2023/07/07 13:56:13;;;;;;;5.60;4.63;;;;;;;27.68;51.65;99323.44;5068304;28;20178;-40
2023/07/07 13:58:41;;;;;;;6.72;4.35;;;;;;;27.59;52.08;99332.47;5067542;28;20040;-43
2023/07/07 14:01:33;;;;;;;7.38;5.30;;;;;;;27.41;52.55;99331.78;5053577;28;20041;-43
2023/07/07 14:04:01;;;;;;;10.75;6.25;;;;;;;27.28;53.09;99326.13;5060899;28;20040;-44
2023/07/07 14:06:27;;;;;;;8.05;5.45;;;;;;;27.20;53.42;99315.47;5066572;28;20067;-41
2023/07/07 14:08:53;;;;;;;9.38;5.35;;;;;;;27.14;53.59;99321.47;5046952;28;20582;-42
2023/07/07 14:11:24;;;;;;;8.77;5.18;;;;;;;27.05;54.07;99325.13;5047688;28;20063;-42
2023/07/07 14:13:53;;;;;;;5.93;5.05;;;;;;;27.01;54.17;99315.81;5057095;28;20109;-42
2023/07/07 14:16:26;;;;;;;6.25;4.57;;;;;;;26.95;53.86;99294.09;5065381;28;20047;-44
2023/07/07 14:19:22;;;;;;;8.52;5.50;;;;;;;26.92;53.49;99289.09;5066420;28;20040;-42
2023/07/07 14:21:48;;;;;;;10.93;5.28;;;;;;;26.85;54.06;99285.38;5051969;28;20045;-42
2023/07/07 14:24:17;;;;;;;7.72;5.03;;;;;;;26.77;54.88;99284.56;5048711;28;20710;-42
2023/07/07 14:26:44;;;;;;;9.68;5.53;;;;;;;26.54;55.41;99273.69;5045971;28;20040;-43
2023/07/07 14:29:17;;;;;;;12.45;5.85;;;;;;;26.54;56.13;99295.84;5049757;28;20107;-43
2023/07/07 14:31:43;;;;;;;7.47;5.45;;;;;;;26.46;56.06;99287.00;5047230;28;20086;-43
2023/07/07 14:34:13;;;;;;;7.65;6.00;;;;;;;26.33;57.15;99289.28;5062870;28;20044;-43
2023/07/07 14:36:44;;;;;;;7.43;5.38;;;;;;;26.24;57.36;99291.09;5062738;28;20041;-42
2023/07/07 14:39:24;;;;;;;8.05;5.30;;;;;;;26.15;58.11;99284.06;5046426;28;20044;-42
2023/07/07 14:41:56;;;;;;;11.18;5.88;;;;;;;26.04;58.03;99279.03;5063593;28;20040;-42
2023/07/07 14:44:44;;;;;;;6.07;5.10;;;;;;;25.94;57.18;99263.16;5059264;28;20036;-44
2023/07/07 14:47:37;;;;;;;8.00;5.75;;;;;;;26.02;57.45;99289.81;5059241;28;20036;-41
2023/07/07 14:50:06;;;;;;;7.25;5.85;;;;;;;25.99;58.28;99302.66;5063675;28;20048;-44
2023/07/07 14:52:47;;;;;;;11.57;5.85;;;;;;;25.98;58.77;99316.94;5077185;28;20083;-45
2023/07/07 14:55:22;;;;;;;8.77;6.53;;;;;;;25.88;59.04;99316.25;5062109;28;20040;-41
2023/07/07 14:58:01;;;;;;;7.25;6.30;;;;;;;25.77;59.62;99324.50;5060495;28;20614;-42
2023/07/07 15:00:30;;;;;;;;;;;;;;;25.80;60.03;99340.19;5059780;28;20055;-41
2023/07/07 15:02:56;;;;;;;7.85;5.80;;;;;;;25.75;59.84;99342.47;5082510;28;19967;-39
2023/07/07 15:05:31;;;;;;;9.63;6.15;;;;;;;25.77;59.96;99340.47;5062511;28;20043;-40
2023/07/07 15:08:06;;;;;;;10.90;6.07;;;;;;;25.76;60.14;99334.31;5064170;28;20600;-41
2023/07/07 15:10:32;;;;;;;7.15;6.25;;;;;;;25.62;60.39;99301.13;5057285;28;20063;-41
2023/07/07 15:12:58;;;;;;;11.60;6.20;;;;;;;25.75;60.38;99314.00;5060779;28;20843;-40
2023/07/07 15:15:24;;;;;;;10.45;6.65;;;;;;;25.75;60.30;99307.88;5062903;28;20040;-40
2023/07/07 15:17:50;;;;;;;12.18;6.85;;;;;;;25.74;60.81;99304.38;5057004;28;20044;-40
2023/07/07 15:20:18;;;;;;;13.55;6.53;;;;;;;25.61;61.07;99283.47;5055014;28;20110;-40
2023/07/07 15:22:44;;;;;;;11.50;7.05;;;;;;;25.68;61.33;99305.81;5070663;28;20434;-41
2023/07/07 15:25:10;;;;;;;13.10;6.75;;;;;;;25.65;61.51;99300.81;5062946;28;20043;-40
2023/07/07 15:27:36;;;;;;;8.30;6.80;;;;;;;25.66;61.48;99288.31;5061968;28;20110;-40
2023/07/07 15:30:03;;;;;;;12.93;6.72;;;;;;;25.65;61.79;99283.97;5061368;28;20051;-39
2023/07/07 15:32:31;;;;;;;;;;;;;;;25.66;61.92;99285.66;5043179;28;20531;-40
2023/07/07 15:34:57;;;;;;;9.13;6.18;;;;;;;25.54;61.92;99263.75;5062536;28;19916;-42
2023/07/07 15:37:23;;;;;;;11.13;6.40;;;;;;;25.59;62.33;99266.00;5061233;28;20056;-41
2023/07/07 15:39:48;;;;;;;14.85;7.35;;;;;;;25.59;62.18;99272.13;5070112;28;20044;-40
2023/07/07 15:42:15;;;;;;;11.85;7.53;;;;;;;25.61;62.56;99282.63;5065261;28;20075;-40
2023/07/07 15:44:41;;;;;;;11.35;7.45;;;;;;;25.61;62.47;99295.94;5063134;28;20064;-40
2023/07/07 15:47:21;;;;;;;9.73;6.50;;;;;;;25.61;62.86;99311.94;5056944;28;20048;-40
2023/07/07 15:49:47;;;;;;;12.77;7.10;;;;;;;25.58;62.94;99302.44;5060087;28;20044;-40
2023/07/07 15:52:17;;;;;;;8.45;6.35;;;;;;;25.55;63.21;99305.41;5062911;28;20895;-40
2023/07/07 15:54:43;;;;;;;12.45;6.72;;;;;;;25.53;63.44;99301.22;5066294;28;20536;-40
2023/07/07 15:57:10;;;;;;;8.45;6.43;;;;;;;25.53;63.59;99315.34;5064192;28;20036;-40
2023/07/07 15:59:37;;;;;;;11.05;6.82;;;;;;;25.56;63.61;99322.22;5056196;28;20072;-39
2023/07/07 16:02:14;;;;;;;10.00;7.18;;;;;;;25.56;64.11;99319.56;5057268;28;20033;-40
2023/07/07 16:04:40;;;;;;;9.23;7.25;;;;;;;25.54;64.07;99318.88;5062202;28;20068;-40
2023/07/07 16:07:14;;;;;;;8.43;6.50;;;;;;;25.52;64.65;99319.00;5064198;28;20102;-41
2023/07/07 16:09:40;;;;;;;11.20;7.70;;;;;;;25.52;64.51;99307.53;5057091;28;20102;-41
2023/07/07 16:12:10;;;;;;;10.15;7.07;;;;;;;25.57;64.13;99314.09;5056120;28;20090;-40
2023/07/07 16:14:36;;;;;;;11.50;7.18;;;;;;;25.58;64.33;99317.56;5072381;28;20363;-40
2023/07/07 16:17:03;;;;;;;11.48;7.32;;;;;;;25.59;64.51;99316.59;5061877;28;20040;-40
2023/07/07 16:19:30;;;;;;;11.05;6.85;;;;;;;25.61;64.58;99318.09;5063968;28;20083;-39
2023/07/07 16:21:56;;;;;;;8.65;7.45;;;;;;;25.62;64.39;99303.78;5059535;28;20032;-42
2023/07/07 16:24:21;;;;;;;8.95;7.85;;;;;;;25.60;64.45;99294.28;5060768;28;20043;-40
2023/07/07 16:26:47;;;;;;;10.98;7.88;;;;;;;25.40;64.62;99258.19;5061838;28;20119;-40
2023/07/07 16:29:16;;;;;;;9.00;7.20;;;;;;;25.58;65.07;99304.25;5064520;28;20041;-40
2023/07/07 16:31:42;;;;;;;10.43;7.45;;;;;;;25.60;64.75;99308.44;5060991;28;20029;-40
2023/07/07 16:34:10;;;;;;;12.95;8.40;;;;;;;25.60;64.99;99295.13;5062946;28;20063;-41
2023/07/07 16:36:36;;;;;;;9.88;7.60;;;;;;;25.58;65.42;99294.44;5062189;28;20062;-40
2023/07/07 16:39:01;;;;;;;13.15;8.25;;;;;;;25.58;65.72;99302.44;5026015;28;20040;-45